Terminal Aerodrome Forecast
Issued by NWS

Home | Current Version | Previous Version | Text Only | Print | Product List | Glossary On
Versions: 1 2 3 4 5 6 7 8 9 10 11 12 13 14 15 16
000
FTUS41 KBGM 231758 AAA
TAFELM
TAF AMD
KELM 231758Z 2318/2418 19012G20KT P6SM OVC035
     FM240200 19014G24KT P6SM OVC025 WS020/17040KT
     FM240600 19018G30KT 5SM -SHRA BR OVC015 WS020/17050KT
     FM241000 21009KT 3SM -SHRA BR OVC012
     FM241500 21010KT P6SM SCT040=

USA.gov is the U.S. government's official web portal to all federal, state and local government web resources and services.